Time;durP1;ratioP1;P1;durP2;ratioP2;P2;SDS_P1;SDS_P2;PMS_P1;PMS_P2;Temp;Humidity;BMP_temperature;BMP_pressure;BME280_temperature;BME280_humidity;BME280_pressure;Samples;Min_cycle;Max_cycle;Signal;HPM_P1;HPM_P2
2023/04/08 07:18:23;;;;;;;29.98;20.23;;;;;;;;;;6161369;22;1410424;-84
2023/04/08 07:20:56;;;;;;;31.63;20.92;;;;;;;;;;6252942;23;20019;-84
2023/04/08 07:23:22;;;;;;;29.55;20.48;;;;;;;;;;6254686;22;20008;-84
2023/04/08 07:25:47;;;;;;;27.17;19.13;;;;;;;;;;6247411;23;20499;-84
2023/04/08 07:28:13;;;;;;;31.17;20.40;;;;;;;;;;6224016;23;20026;-84
2023/04/08 07:30:38;;;;;;;30.60;20.45;;;;;;;;;;6224275;23;20007;-84
2023/04/08 07:33:04;;;;;;;25.58;17.85;;;;;;;;;;6224092;23;20015;-84
2023/04/08 07:35:30;;;;;;;28.40;17.77;;;;;;;;;;6223889;23;20048;-85
2023/04/08 07:37:56;;;;;;;23.88;15.63;;;;;;;;;;6217407;23;20075;-85
2023/04/08 07:40:22;;;;;;;23.20;15.30;;;;;;;;;;6217370;23;20035;-85
2023/04/08 07:42:48;;;;;;;24.20;15.00;;;;;;;;;;6217139;23;20005;-84
2023/04/08 07:45:14;;;;;;;22.35;15.73;;;;;;;;;;6215611;23;20005;-85
2023/04/08 07:47:39;;;;;;;23.90;15.45;;;;;;;;;;6215803;23;20309;-85
2023/04/08 07:50:06;;;;;;;22.30;15.07;;;;;;;;;;6217119;23;20090;-86
2023/04/08 07:52:31;;;;;;;24.08;15.15;;;;;;;;;;6217119;23;20076;-85
2023/04/08 07:54:57;;;;;;;23.17;15.55;;;;;;;;;;6217488;23;20032;-89
2023/04/08 07:57:22;;;;;;;21.70;14.88;;;;;;;;;;6217157;23;20019;-89
2023/04/08 07:59:48;;;;;;;24.42;14.93;;;;;;;;;;6217226;23;20034;-87
2023/04/08 08:02:13;;;;;;;21.45;14.13;;;;;;;;;;6218552;23;20032;-86
2023/04/08 08:04:38;;;;;;;23.95;15.15;;;;;;;;;;6218517;23;20000;-89
2023/04/08 08:07:04;;;;;;;24.50;14.48;;;;;;;;;;6217517;23;20009;-83
2023/04/08 08:09:30;;;;;;;21.98;15.45;;;;;;;;;;6217125;23;20392;-84
2023/04/08 08:11:55;;;;;;;23.17;14.68;;;;;;;;;;6215588;23;20005;-84
2023/04/08 08:14:21;;;;;;;23.40;14.80;;;;;;;;;;6216946;23;20155;-83
2023/04/08 08:16:47;;;;;;;22.20;14.43;;;;;;;;;;6217167;23;20004;-80
2023/04/08 08:19:12;;;;;;;22.65;14.40;;;;;;;;;;6215275;23;20074;-83
2023/04/08 08:21:38;;;;;;;25.27;14.35;;;;;;;;;;6217046;23;20044;-78
2023/04/08 08:24:04;;;;;;;22.85;14.45;;;;;;;;;;6217284;23;20428;-84
2023/04/08 08:26:29;;;;;;;21.75;13.70;;;;;;;;;;6215308;23;20096;-86
2023/04/08 08:28:55;;;;;;;22.08;13.55;;;;;;;;;;6216373;23;20339;-87
2023/04/08 08:31:20;;;;;;;23.85;14.10;;;;;;;;;;6217001;23;20000;-84
2023/04/08 08:33:46;;;;;;;25.15;16.73;;;;;;;;;;6216912;23;20012;-84
2023/04/08 08:36:12;;;;;;;29.85;17.90;;;;;;;;;;6216842;23;20009;-84
2023/04/08 08:38:37;;;;;;;29.65;16.77;;;;;;;;;;6215387;23;20028;-87
2023/04/08 08:41:03;;;;;;;27.50;18.50;;;;;;;;;;6217131;23;20008;-88
2023/04/08 08:43:32;;;;;;;26.83;16.88;;;;;;;;;;6217149;23;20000;-88
2023/04/08 08:45:58;;;;;;;27.48;18.50;;;;;;;;;;6215054;23;20011;-82
2023/04/08 08:48:24;;;;;;;30.45;18.25;;;;;;;;;;6216033;23;20004;-85
2023/04/08 08:50:50;;;;;;;27.13;18.48;;;;;;;;;;6215446;23;20099;-87
2023/04/08 08:53:15;;;;;;;28.55;18.42;;;;;;;;;;6216936;23;20004;-84
2023/04/08 08:55:40;;;;;;;27.73;18.27;;;;;;;;;;6217436;23;20005;-90
2023/04/08 08:58:06;;;;;;;30.52;18.92;;;;;;;;;;6217297;23;20071;-92
2023/04/08 09:00:37;;;;;;;30.20;19.25;;;;;;;;;;6216900;23;20008;-87
2023/04/08 09:03:29;;;;;;;29.83;20.25;;;;;;;;;;6217100;23;20004;-91
2023/04/08 09:05:58;;;;;;;27.08;17.50;;;;;;;;;;6216530;23;20008;-85
2023/04/08 09:08:25;;;;;;;26.30;17.73;;;;;;;;;;6218561;23;20001;-95
2023/04/08 09:10:52;;;;;;;23.77;16.58;;;;;;;;;;6218396;23;20454;-93
2023/04/08 09:13:17;;;;;;;28.73;18.63;;;;;;;;;;6220647;23;20008;-91
2023/04/08 09:16:03;;;;;;;28.90;18.30;;;;;;;;;;6217549;23;20259;-94
2023/04/08 09:18:30;;;;;;;29.73;19.13;;;;;;;;;;6216867;23;20013;-88
2023/04/08 09:20:55;;;;;;;29.00;18.40;;;;;;;;;;6216971;23;20059;-93
2023/04/08 09:23:21;;;;;;;27.92;17.75;;;;;;;;;;6215942;23;20005;-83
2023/04/08 09:25:46;;;;;;;27.25;18.15;;;;;;;;;;6216162;23;20058;-86
2023/04/08 09:28:20;;;;;;;27.13;17.90;;;;;;;;;;6189840;23;20005;-82
2023/04/08 09:30:46;;;;;;;24.38;16.83;;;;;;;;;;6189133;23;20004;-84
2023/04/08 09:33:12;;;;;;;27.90;18.35;;;;;;;;;;6216199;23;20011;-82
2023/04/08 09:35:37;;;;;;;27.02;17.58;;;;;;;;;;6216140;23;20028;-84
2023/04/08 09:38:03;;;;;;;25.88;17.02;;;;;;;;;;6189076;23;20008;-82
2023/04/08 09:40:32;;;;;;;29.92;18.48;;;;;;;;;;6189729;23;20004;-82
2023/04/08 09:43:03;;;;;;;28.85;17.63;;;;;;;;;;6216385;23;20001;-84
2023/04/08 09:45:30;;;;;;;28.67;17.38;;;;;;;;;;6189506;23;20428;-87
2023/04/08 09:48:07;;;;;;;29.88;18.38;;;;;;;;;;6216663;23;20012;-88
2023/04/08 09:50:39;;;;;;;29.77;18.25;;;;;;;;;;6216700;23;20075;-85
2023/04/08 09:53:19;;;;;;;28.83;17.70;;;;;;;;;;6216227;23;20008;-85
2023/04/08 09:55:52;;;;;;;30.33;18.85;;;;;;;;;;6189504;23;20494;-85
2023/04/08 09:58:38;;;;;;;31.13;17.70;;;;;;;;;;6216119;23;20420;-86
2023/04/08 10:01:06;;;;;;;32.38;18.40;;;;;;;;;;6216104;23;20000;-83
2023/04/08 10:03:39;;;;;;;33.78;19.75;;;;;;;;;;6216110;23;20028;-85
2023/04/08 10:06:07;;;;;;;29.90;18.77;;;;;;;;;;6215846;23;20012;-86
2023/04/08 10:08:34;;;;;;;29.58;17.55;;;;;;;;;;6216312;23;20001;-86
2023/04/08 10:10:59;;;;;;;29.80;18.02;;;;;;;;;;6216148;23;20012;-86
2023/04/08 10:13:27;;;;;;;31.95;18.10;;;;;;;;;;6189466;23;20058;-86
2023/04/08 10:16:16;;;;;;;34.63;18.20;;;;;;;;;;6215784;23;20024;-87
2023/04/08 10:18:43;;;;;;;28.70;18.03;;;;;;;;;;6192360;23;20028;-83
2023/04/08 10:21:30;;;;;;;31.02;18.80;;;;;;;;;;6215989;23;20335;-83
2023/04/08 10:23:58;;;;;;;26.98;18.00;;;;;;;;;;6214404;23;20008;-83
2023/04/08 10:26:41;;;;;;;28.58;18.50;;;;;;;;;;6215869;23;20096;-86
2023/04/08 10:29:18;;;;;;;30.83;18.17;;;;;;;;;;6215959;23;20083;-84
2023/04/08 10:31:45;;;;;;;30.65;18.80;;;;;;;;;;6214417;23;20440;-84
2023/04/08 10:34:19;;;;;;;28.75;17.83;;;;;;;;;;6215985;23;20416;-83
2023/04/08 10:36:46;;;;;;;28.08;17.45;;;;;;;;;;6214354;23;20008;-85
2023/04/08 10:39:13;;;;;;;29.63;17.70;;;;;;;;;;6216210;23;20000;-86
2023/04/08 10:41:42;;;;;;;27.38;17.20;;;;;;;;;;6216106;23;20007;-86
2023/04/08 10:44:18;;;;;;;;;;;;;;;;;;6216421;23;20301;-83
2023/04/08 10:46:47;;;;;;;29.50;17.85;;;;;;;;;;6215864;23;19982;-83
2023/04/08 10:49:13;;;;;;;;;;;;;;;;;;6216340;23;20011;-83
2023/04/08 10:51:40;;;;;;;31.60;18.33;;;;;;;;;;6216368;23;19943;-84
2023/04/08 10:54:07;;;;;;;30.75;17.92;;;;;;;;;;6216214;23;20012;-84
2023/04/08 10:56:34;;;;;;;35.15;19.75;;;;;;;;;;6214244;23;20009;-84
2023/04/08 10:59:00;;;;;;;30.88;17.88;;;;;;;;;;6216017;23;20103;-84
2023/04/08 11:01:26;;;;;;;33.33;17.73;;;;;;;;;;6215846;23;20432;-87
2023/04/08 11:03:52;;;;;;;30.88;18.65;;;;;;;;;;6215670;23;20004;-84
2023/04/08 11:06:18;;;;;;;31.33;18.63;;;;;;;;;;6214161;23;20087;-84
2023/04/08 11:08:44;;;;;;;30.65;18.17;;;;;;;;;;6215857;23;20000;-84
2023/04/08 11:11:10;;;;;;;31.85;19.67;;;;;;;;;;6216114;23;20031;-86
2023/04/08 11:13:41;;;;;;;31.42;19.45;;;;;;;;;;6217769;23;20022;-85
2023/04/08 11:16:07;;;;;;;30.10;18.35;;;;;;;;;;6216052;23;20069;-85
2023/04/08 11:18:39;;;;;;;28.08;19.10;;;;;;;;;;6217446;23;20143;-84
2023/04/08 11:21:09;;;;;;;33.72;19.02;;;;;;;;;;6217551;23;20063;-85
2023/04/08 11:23:36;;;;;;;30.08;18.77;;;;;;;;;;6217570;23;20435;-84
2023/04/08 11:26:02;;;;;;;35.10;20.00;;;;;;;;;;6217552;23;20008;-85
2023/04/08 11:28:28;;;;;;;30.38;18.88;;;;;;;;;;6217400;23;20028;-85
2023/04/08 11:30:54;;;;;;;29.58;19.70;;;;;;;;;;6217581;23;20438;-86
2023/04/08 11:33:20;;;;;;;31.15;20.17;;;;;;;;;;6190909;23;20080;-86
2023/04/08 11:35:50;;;;;;;28.25;19.25;;;;;;;;;;6191219;23;20005;-84
2023/04/08 11:38:16;;;;;;;26.13;19.40;;;;;;;;;;6217584;23;20420;-84
2023/04/08 11:40:52;;;;;;;26.52;18.50;;;;;;;;;;6217569;23;20071;-85
2023/04/08 11:43:17;;;;;;;27.17;20.17;;;;;;;;;;6217346;23;20036;-84
2023/04/08 11:45:42;;;;;;;29.38;19.15;;;;;;;;;;6217014;23;20344;-85
2023/04/08 11:48:13;;;;;;;29.15;19.00;;;;;;;;;;6217888;23;20005;-85
2023/04/08 11:50:39;;;;;;;29.67;19.73;;;;;;;;;;6217396;23;20004;-84
2023/04/08 11:53:24;;;;;;;29.90;19.35;;;;;;;;;;6217271;23;20008;-85
2023/04/08 11:55:50;;;;;;;27.90;18.67;;;;;;;;;;6217200;23;20015;-85
2023/04/08 11:58:15;;;;;;;29.73;17.98;;;;;;;;;;6217755;23;20008;-84
2023/04/08 12:00:42;;;;;;;31.13;19.40;;;;;;;;;;6190682;23;20425;-86
2023/04/08 12:03:08;;;;;;;29.60;17.85;;;;;;;;;;6217069;23;20004;-84
2023/04/08 12:05:33;;;;;;;30.83;18.40;;;;;;;;;;6217277;23;20508;-83
2023/04/08 12:07:59;;;;;;;30.27;20.02;;;;;;;;;;6190605;23;20004;-85
2023/04/08 12:10:24;;;;;;;29.33;19.40;;;;;;;;;;6217153;23;20012;-87
2023/04/08 12:12:50;;;;;;;35.45;23.17;;;;;;;;;;6191213;23;20371;-83
2023/04/08 12:15:16;;;;;;;29.05;19.33;;;;;;;;;;6217291;23;20424;-86
2023/04/08 12:17:42;;;;;;;29.65;21.45;;;;;;;;;;6219657;23;20001;-87
2023/04/08 12:20:08;;;;;;;28.33;20.38;;;;;;;;;;6217304;23;20036;-87
2023/04/08 12:22:34;;;;;;;28.85;21.48;;;;;;;;;;6217586;23;20008;-87
2023/04/08 12:25:01;;;;;;;28.00;20.00;;;;;;;;;;6217829;23;20496;-88
2023/04/08 12:27:27;;;;;;;35.22;25.27;;;;;;;;;;6217641;23;19996;-92
2023/04/08 12:29:52;;;;;;;35.20;26.20;;;;;;;;;;6217197;23;20362;-87
2023/04/08 12:32:18;;;;;;;29.02;21.98;;;;;;;;;;6190749;23;20372;-86
2023/04/08 12:34:43;;;;;;;33.08;26.80;;;;;;;;;;6217114;23;20009;-82
2023/04/08 12:37:09;;;;;;;32.92;25.77;;;;;;;;;;6216830;23;20060;-83
2023/04/08 12:39:34;;;;;;;30.55;22.30;;;;;;;;;;6216762;23;20039;-86
2023/04/08 12:42:00;;;;;;;29.77;21.92;;;;;;;;;;6190392;23;20080;-84
2023/04/08 12:44:25;;;;;;;33.08;22.50;;;;;;;;;;6216818;23;20011;-85
2023/04/08 12:46:51;;;;;;;29.98;20.55;;;;;;;;;;6216957;23;20001;-85
2023/04/08 16:36:38;;;;;;;15.15;12.45;;;;;;;;;;6269106;22;20023;-90
2023/04/08 16:39:03;;;;;;;14.57;11.60;;;;;;;;;;6278354;22;20039;-85
2023/04/08 16:41:29;;;;;;;16.83;11.07;;;;;;;;;;6276365;22;20010;-82
2023/04/08 16:43:54;;;;;;;13.38;11.18;;;;;;;;;;6263542;22;20008;-84
2023/04/08 16:46:20;;;;;;;15.90;10.68;;;;;;;;;;6246920;22;20027;-87
2023/04/08 16:48:46;;;;;;;17.50;11.35;;;;;;;;;;6247237;22;20032;-86
2023/04/08 16:51:11;;;;;;;16.25;12.45;;;;;;;;;;6247366;22;20331;-86
2023/04/08 16:53:37;;;;;;;15.43;10.85;;;;;;;;;;6247177;22;20007;-87
2023/04/08 16:56:03;;;;;;;14.90;11.07;;;;;;;;;;6246983;22;20032;-87
2023/04/08 16:58:29;;;;;;;15.68;10.73;;;;;;;;;;6247393;22;20004;-87
2023/04/08 17:00:54;;;;;;;16.40;11.88;;;;;;;;;;6247230;22;20027;-91
2023/04/08 17:03:20;;;;;;;15.82;11.50;;;;;;;;;;6247164;22;20000;-85
2023/04/08 17:05:46;;;;;;;16.80;12.05;;;;;;;;;;6247718;22;20000;-88
2023/04/08 17:08:11;;;;;;;15.88;11.90;;;;;;;;;;6247417;22;20071;-86
2023/04/08 17:10:37;;;;;;;16.42;12.73;;;;;;;;;;6245004;23;20004;-86
2023/04/08 17:13:04;;;;;;;15.98;12.10;;;;;;;;;;6247049;22;20007;-88
2023/04/08 17:15:29;;;;;;;12.35;10.88;;;;;;;;;;6246957;22;20085;-88
2023/04/08 17:17:55;;;;;;;15.05;11.68;;;;;;;;;;6246939;22;20004;-88
2023/04/08 17:20:21;;;;;;;13.98;11.27;;;;;;;;;;6247153;22;20000;-88
2023/04/08 17:22:46;;;;;;;17.50;12.50;;;;;;;;;;6248982;22;20038;-88
2023/04/08 17:25:12;;;;;;;16.83;13.55;;;;;;;;;;6247539;22;20415;-91
2023/04/08 17:27:37;;;;;;;16.60;13.15;;;;;;;;;;6246791;22;20008;-84
2023/04/08 17:30:03;;;;;;;18.15;14.27;;;;;;;;;;6246550;22;20004;-87
2023/04/08 17:32:28;;;;;;;17.75;13.23;;;;;;;;;;6246874;22;20075;-87
2023/04/08 17:34:54;;;;;;;15.90;11.73;;;;;;;;;;6246548;22;20014;-86
2023/04/08 17:37:20;;;;;;;13.85;10.65;;;;;;;;;;6246791;22;20012;-84
2023/04/08 17:39:46;;;;;;;15.63;11.75;;;;;;;;;;6246655;22;20309;-85
2023/04/08 17:42:11;;;;;;;14.77;10.88;;;;;;;;;;6246801;22;20079;-90
2023/04/08 17:44:37;;;;;;;12.65;10.15;;;;;;;;;;6246805;22;20027;-85
2023/04/08 17:47:03;;;;;;;13.07;10.98;;;;;;;;;;6246724;22;20000;-91
2023/04/08 17:49:28;;;;;;;13.10;10.75;;;;;;;;;;6246552;22;20324;-85
2023/04/08 17:51:55;;;;;;;15.85;11.63;;;;;;;;;;6246675;22;20008;-85
2023/04/08 17:54:21;;;;;;;12.90;11.35;;;;;;;;;;6246562;22;20000;-84
2023/04/08 17:56:46;;;;;;;16.67;12.05;;;;;;;;;;6246842;22;20071;-84
2023/04/08 17:59:12;;;;;;;15.50;12.23;;;;;;;;;;6246720;22;20007;-90
2023/04/08 18:01:37;;;;;;;16.13;12.95;;;;;;;;;;6246614;22;20007;-89
2023/04/08 18:04:05;;;;;;;19.85;15.43;;;;;;;;;;6246552;22;20011;-89
2023/04/08 18:06:31;;;;;;;21.58;16.15;;;;;;;;;;6245104;23;20004;-89
2023/04/08 18:08:57;;;;;;;19.88;13.98;;;;;;;;;;6246562;22;20011;-89
2023/04/08 18:11:25;;;;;;;15.02;12.48;;;;;;;;;;6245159;23;20439;-89
2023/04/08 18:13:51;;;;;;;16.33;12.57;;;;;;;;;;6246528;22;20053;-90
2023/04/08 18:16:18;;;;;;;16.33;12.90;;;;;;;;;;6246893;22;20429;-90
2023/04/08 18:18:43;;;;;;;15.85;12.20;;;;;;;;;;6247528;22;20004;-90
2023/04/08 18:21:09;;;;;;;15.20;11.65;;;;;;;;;;6247335;22;20312;-86
2023/04/08 18:23:35;;;;;;;14.32;12.38;;;;;;;;;;6247276;22;20008;-87
2023/04/08 18:26:01;;;;;;;12.55;11.20;;;;;;;;;;6245253;23;20320;-87
2023/04/08 18:28:26;;;;;;;14.68;11.45;;;;;;;;;;6246537;22;20008;-87
2023/04/08 18:30:52;;;;;;;12.30;10.65;;;;;;;;;;6246450;22;20004;-88
2023/04/08 18:33:17;;;;;;;14.95;12.25;;;;;;;;;;6246637;22;20319;-87
2023/04/08 22:50:34;;;;;;;12.13;9.73;;;;;;;;;;6300172;22;20027;-86
2023/04/08 22:53:00;;;;;;;13.15;10.38;;;;;;;;;;6307743;22;20371;-87
2023/04/08 22:55:26;;;;;;;11.40;9.00;;;;;;;;;;6308171;22;20011;-87
2023/04/08 22:57:51;;;;;;;12.93;9.98;;;;;;;;;;6307639;22;20007;-86
2023/04/08 23:00:17;;;;;;;13.00;9.68;;;;;;;;;;6307814;22;20326;-87
2023/04/08 23:02:42;;;;;;;15.25;10.43;;;;;;;;;;6306352;22;20003;-87
2023/04/08 23:05:08;;;;;;;13.57;10.90;;;;;;;;;;6307834;22;20007;-86
